Главная страница
METAR-TAF:

METAR-TAF

Аэропорты :

Хай-ривер, Северо-Западные Территории, Канада

широта: 60-50N, долгота: 115-47W, высота над уровнем моря: 164 м

Текущие метеонаблюдения

Эта сводка был подготовлена 20 минут назад, в 04:00 UTC
Ветер 10 Узел от южный-юго-западный
Температура -7°C
Влажность 67%
Давление 1006 hPa
Видимость: 24.1 км
небольшая облачность на высоте 23000 фута

METAR: CYHY 230400Z 20010KT 15SM FEW230 M07/M12 A2971 RMK CI2 SLP080

Время: 21:20 (04:20 UTC)

Прогноз

Эта сводка был подготовлена 4 часа и 40 минут назад, в 23:40 UTC
Прогноз действительный с 23-го 00 UTC до 23-го 12 UTC
Ветер 5 Узел от южный
Видимость: 10 км
Рассеянная облачность на высоте 22000 фута

TAF: CYHY 222340Z 2300/2312 19005KT P6SM BKN220 RMK NXT FCST BY 230600Z

Метеонаблюдения и прогнозы для более 4000 аэропортов (сводки METAR и TAF).

Имеющиеся станции представлены на карте желтыми и красными точками.

Чтобы увидеть название станции, наведите на нее мышь.

Затем щелкните, чтобы увидеть метеонаблюдения и метеопрогнозы.

Управление картой: чтобы увеличить масштаб, щелкните зеленые кнопки с черным крестиком; чтобы уменьшить масштаб, щелкните зеленую кнопку с тире; для просмотра соседних карт щелкайте зеленые стрелки.


METAR-TAF: